createdAt,value
2024-04-06T00:02:24.050Z,16.33
2024-04-06T00:07:30.737Z,16.17
2024-04-06T00:12:37.620Z,16.01
2024-04-06T00:17:44.361Z,15.91
2024-04-06T00:22:51.028Z,15.82
2024-04-06T00:27:57.765Z,15.73
2024-04-06T00:33:04.657Z,15.64
2024-04-06T00:38:11.392Z,15.54
2024-04-06T00:43:18.080Z,15.39
2024-04-06T00:48:24.884Z,15.22
2024-04-06T00:53:31.753Z,15.03
2024-04-06T00:58:42.930Z,14.86
2024-04-06T01:03:50.107Z,14.69
2024-04-06T01:08:56.939Z,14.52
2024-04-06T01:14:03.967Z,14.38
2024-04-06T01:19:10.676Z,14.23
2024-04-06T01:24:34.058Z,14.07
2024-04-06T01:29:42.366Z,13.93
2024-04-06T01:34:49.448Z,13.78
2024-04-06T01:39:56.188Z,13.64
2024-04-06T01:45:03.956Z,13.48
2024-04-06T01:50:11.756Z,13.35
2024-04-06T01:55:18.687Z,13.24
2024-04-06T02:00:28.447Z,13.15
2024-04-06T02:05:37.978Z,13.04
2024-04-06T02:10:45.112Z,12.92
2024-04-06T02:15:51.846Z,12.80
2024-04-06T02:20:58.847Z,12.67
2024-04-06T02:26:06.086Z,12.58
2024-04-06T02:31:12.877Z,12.54
2024-04-06T02:36:19.893Z,12.47
2024-04-06T02:41:26.742Z,12.40
2024-04-06T02:46:33.433Z,12.32
2024-04-06T02:51:40.398Z,12.25
2024-04-06T02:56:47.040Z,12.16
2024-04-06T03:01:53.904Z,12.10
2024-04-06T03:07:01.604Z,12.06
2024-04-06T03:12:13.861Z,11.98
2024-04-06T03:17:20.809Z,11.89
2024-04-06T03:22:27.544Z,11.79
2024-04-06T03:27:34.573Z,11.71
2024-04-06T03:32:41.487Z,11.63
2024-04-06T03:37:49.245Z,11.57
2024-04-06T03:43:00.356Z,11.52
2024-04-06T03:48:09.498Z,11.48
2024-04-06T03:53:30.409Z,11.50
2024-04-06T03:58:37.204Z,11.53
2024-04-06T04:03:43.907Z,11.53
2024-04-06T04:08:50.596Z,11.50
2024-04-06T04:14:00.573Z,11.46
2024-04-06T04:19:07.260Z,11.42
2024-04-06T04:24:13.929Z,11.39
2024-04-06T04:29:20.968Z,11.37
2024-04-06T04:34:27.822Z,11.34
2024-04-06T04:39:34.951Z,11.28
2024-04-06T04:44:46.364Z,11.21
2024-04-06T04:49:53.424Z,11.16
2024-04-06T04:55:00.638Z,11.14
2024-04-06T05:00:11.112Z,11.19
2024-04-06T05:05:18.015Z,11.22
2024-04-06T05:10:25.294Z,11.20
2024-04-06T05:15:31.984Z,11.25
2024-04-06T05:20:38.804Z,11.36
2024-04-06T05:25:45.790Z,11.47
2024-04-06T05:30:53.878Z,11.60
2024-04-06T05:36:02.785Z,11.75
2024-04-06T05:41:09.879Z,11.88
2024-04-06T05:46:17.331Z,12.02
2024-04-06T05:51:25.100Z,12.10
2024-04-06T05:56:31.980Z,12.22
2024-04-06T06:01:38.677Z,12.40
2024-04-06T06:06:45.369Z,12.55
2024-04-06T06:11:55.017Z,12.67
2024-04-06T06:17:01.843Z,12.84
2024-04-06T06:22:10.772Z,13.03
2024-04-06T06:27:18.162Z,13.21
2024-04-06T06:32:34.487Z,13.43
2024-04-06T06:42:51.419Z,13.87
2024-04-06T06:47:58.025Z,14.09
2024-04-06T06:53:04.953Z,14.30
2024-04-06T06:58:11.709Z,14.58
2024-04-06T07:03:19.119Z,14.88
2024-04-06T07:08:25.878Z,15.25
2024-04-06T07:13:34.186Z,15.66
2024-04-06T07:18:42.434Z,16.04
2024-04-06T07:23:49.210Z,16.38
2024-04-06T07:28:57.741Z,16.53
2024-04-06T07:34:04.516Z,16.76
2024-04-06T07:44:22.157Z,17.31
2024-04-06T07:49:30.190Z,17.49
2024-04-06T07:54:36.784Z,17.64
2024-04-06T07:59:43.358Z,17.69
2024-04-06T08:04:57.798Z,17.85
2024-04-06T08:10:36.848Z,17.98
2024-04-06T08:15:51.096Z,18.15
2024-04-06T08:20:58.178Z,18.27
2024-04-06T08:26:05.051Z,18.41
2024-04-06T08:31:11.944Z,18.41
2024-04-06T08:36:24.211Z,18.41
2024-04-06T08:41:32.602Z,18.56
2024-04-06T08:46:39.505Z,18.67
2024-04-06T08:51:51.519Z,18.74
2024-04-06T08:57:01.453Z,18.89
2024-04-06T09:02:08.342Z,18.98
2024-04-06T09:07:15.284Z,19.09
2024-04-06T09:12:22.610Z,19.21
2024-04-06T09:17:30.468Z,19.35
2024-04-06T09:22:37.534Z,19.53
2024-04-06T09:27:50.030Z,19.60
2024-04-06T09:32:59.536Z,19.74
2024-04-06T09:38:10.122Z,19.92
2024-04-06T09:43:17.299Z,19.92
2024-04-06T09:48:26.096Z,19.95
2024-04-06T09:53:33.163Z,19.98
2024-04-06T09:58:48.009Z,19.94
2024-04-06T10:03:54.869Z,20.12
2024-04-06T10:09:03.419Z,20.28
2024-04-06T10:14:10.435Z,20.39
2024-04-06T10:19:18.826Z,20.53
2024-04-06T10:24:29.891Z,20.65
2024-04-06T10:29:37.712Z,20.77
2024-04-06T10:39:52.552Z,20.44
2024-04-06T10:44:59.110Z,20.66
2024-04-06T10:50:09.268Z,20.76
2024-04-06T10:55:20.450Z,20.78
2024-04-06T11:00:28.476Z,20.76
2024-04-06T11:05:37.564Z,20.81
2024-04-06T11:10:44.182Z,21.04
2024-04-06T11:15:51.540Z,21.31
2024-04-06T11:20:58.138Z,21.32
2024-04-06T11:26:06.753Z,21.50
2024-04-06T11:31:14.182Z,21.59
2024-04-06T11:36:20.772Z,21.77
2024-04-06T11:41:27.319Z,21.81
2024-04-06T11:46:36.071Z,21.88
2024-04-06T11:51:45.303Z,21.92
2024-04-06T11:56:51.936Z,22.06
2024-04-06T12:01:59.742Z,22.53
2024-04-06T12:07:07.738Z,22.70
2024-04-06T12:12:14.860Z,22.66
2024-04-06T12:17:28.203Z,23.38
2024-04-06T12:22:34.759Z,24.23
2024-04-06T12:27:41.545Z,24.28
2024-04-06T12:32:48.243Z,24.55
2024-04-06T12:37:56.002Z,25.29
2024-04-06T12:43:02.562Z,25.01
2024-04-06T12:48:10.096Z,25.08
2024-04-06T12:53:17.349Z,24.88
2024-04-06T12:58:24.940Z,25.11
2024-04-06T13:03:31.845Z,25.25
2024-04-06T13:08:39.523Z,26.11
2024-04-06T13:13:46.186Z,26.91
2024-04-06T13:18:52.858Z,27.47
2024-04-06T13:23:59.513Z,28.16
2024-04-06T13:29:06.344Z,28.46
2024-04-06T13:34:12.923Z,29.05
2024-04-06T13:39:21.212Z,29.47
2024-04-06T13:44:26.266Z,29.37
2024-04-06T13:49:33.320Z,29.37
2024-04-06T13:54:40.727Z,29.68
2024-04-06T13:59:47.552Z,29.61
2024-04-06T14:04:54.088Z,28.29
2024-04-06T14:10:00.904Z,27.88
2024-04-06T14:15:09.856Z,28.85
2024-04-06T14:20:16.893Z,29.78
2024-04-06T14:25:23.486Z,30.00
2024-04-06T14:30:33.782Z,29.60
2024-04-06T14:35:41.296Z,29.30
2024-04-06T14:40:47.816Z,29.36
2024-04-06T14:45:54.699Z,29.28
2024-04-06T14:51:01.590Z,29.13
2024-04-06T14:56:10.328Z,29.21
2024-04-06T15:01:18.941Z,29.64
2024-04-06T15:06:25.920Z,29.92
2024-04-06T15:11:38.159Z,28.76
2024-04-06T15:16:45.612Z,28.44
2024-04-06T15:21:53.193Z,28.46
2024-04-06T15:26:59.854Z,28.14
2024-04-06T15:32:07.752Z,27.73
2024-04-06T15:37:16.565Z,27.52
2024-04-06T15:42:24.534Z,27.06
2024-04-06T15:47:31.523Z,26.67
2024-04-06T15:52:38.155Z,26.79
2024-04-06T15:57:44.750Z,26.64
2024-04-06T16:02:51.337Z,26.50
2024-04-06T16:07:57.893Z,26.53
2024-04-06T16:13:04.627Z,26.40
2024-04-06T16:18:11.536Z,26.41
2024-04-06T16:23:18.164Z,26.54
2024-04-06T16:28:24.811Z,26.55
2024-04-06T16:33:32.354Z,26.61
2024-04-06T16:38:38.930Z,26.71
2024-04-06T16:43:47.239Z,26.47
2024-04-06T16:48:53.779Z,25.88
2024-04-06T16:54:00.280Z,25.50
2024-04-06T16:59:06.803Z,25.01
2024-04-06T17:04:13.384Z,24.73
2024-04-06T17:09:19.978Z,24.39
2024-04-06T17:14:27.327Z,23.92
2024-04-06T17:19:35.793Z,23.36
2024-04-06T17:24:44.119Z,22.73
2024-04-06T17:29:50.729Z,22.33
2024-04-06T17:34:57.608Z,21.91
2024-04-06T17:40:05.486Z,21.51
2024-04-06T17:45:12.905Z,20.99
2024-04-06T17:50:20.686Z,20.53
2024-04-06T17:55:27.763Z,20.22
2024-04-06T18:00:34.333Z,19.85
2024-04-06T18:05:41.633Z,19.49
2024-04-06T18:10:50.163Z,19.17
2024-04-06T18:16:02.432Z,18.86
2024-04-06T18:21:11.770Z,18.60
2024-04-06T18:26:18.690Z,18.35
2024-04-06T18:31:25.793Z,18.10
2024-04-06T18:36:33.573Z,17.84
2024-04-06T18:41:41.018Z,17.60
2024-04-06T18:46:47.753Z,17.35
2024-04-06T18:51:55.004Z,17.07
2024-04-06T18:57:04.775Z,16.87
2024-04-06T19:02:14.122Z,16.60
2024-04-06T19:07:24.558Z,16.45
2024-04-06T19:12:31.418Z,16.36
2024-04-06T19:17:41.871Z,16.25
2024-04-06T19:22:49.171Z,16.13
2024-04-06T19:27:56.513Z,16.00
2024-04-06T19:33:04.382Z,15.89
2024-04-06T19:38:11.617Z,15.74
2024-04-06T19:43:18.847Z,15.61
2024-04-06T19:48:25.781Z,15.46
2024-04-06T19:53:33.344Z,15.33
2024-04-06T19:58:41.334Z,15.19
2024-04-06T20:03:48.219Z,15.07
2024-04-06T20:09:08.230Z,14.94
2024-04-06T20:14:15.024Z,14.78
2024-04-06T20:19:22.260Z,14.66
2024-04-06T20:24:48.598Z,14.51
2024-04-06T20:29:55.555Z,14.36
2024-04-06T20:35:02.723Z,14.27
2024-04-06T20:40:13.844Z,14.16
2024-04-06T20:45:20.618Z,14.05
2024-04-06T20:50:27.927Z,13.96
2024-04-06T20:55:38.151Z,13.88
2024-04-06T21:00:47.720Z,13.82
2024-04-06T21:05:54.780Z,13.77
2024-04-06T21:11:03.716Z,13.68
2024-04-06T21:16:14.408Z,13.62
2024-04-06T21:21:21.232Z,13.56
2024-04-06T21:26:28.087Z,13.51
2024-04-06T21:31:35.506Z,13.44
2024-04-06T21:36:43.407Z,13.35
2024-04-06T21:41:50.457Z,13.23
2024-04-06T21:47:00.709Z,13.12
2024-04-06T21:52:08.474Z,13.03
2024-04-06T21:57:15.156Z,12.90
2024-04-06T22:02:22.287Z,12.75
2024-04-06T22:07:29.111Z,12.60
2024-04-06T22:12:36.661Z,12.55
2024-04-06T22:17:43.483Z,12.49
2024-04-06T22:22:50.495Z,12.42
2024-04-06T22:27:57.223Z,12.35
2024-04-06T22:33:04.192Z,12.28
2024-04-06T22:38:10.897Z,12.16
2024-04-06T22:43:17.514Z,12.10
2024-04-06T22:48:24.261Z,12.10
2024-04-06T22:53:31.072Z,12.10
2024-04-06T22:58:38.213Z,12.05
2024-04-06T23:03:44.903Z,12.01
2024-04-06T23:08:51.701Z,11.96
2024-04-06T23:13:58.978Z,11.92
2024-04-06T23:19:05.721Z,11.96
2024-04-06T23:24:12.687Z,11.96
2024-04-06T23:29:19.354Z,11.94
2024-04-06T23:34:26.121Z,11.95
2024-04-06T23:39:33.386Z,11.90
2024-04-06T23:44:40.117Z,11.85
2024-04-06T23:49:53.269Z,11.85
2024-04-06T23:55:02.978Z,11.77
